sensor_id;sensor_type;location;lat;lon;timestamp;temperature;humidity
35970;DHT22;22448;51.298;6.430;2023-05-07T00:01:38;14.30;99.90
35970;DHT22;22448;51.298;6.430;2023-05-07T00:04:05;14.20;99.90
35970;DHT22;22448;51.298;6.430;2023-05-07T00:06:33;14.20;99.90
35970;DHT22;22448;51.298;6.430;2023-05-07T00:09:00;14.20;99.90
35970;DHT22;22448;51.298;6.430;2023-05-07T00:11:28;14.20;99.90
35970;DHT22;22448;51.298;6.430;2023-05-07T00:13:55;14.10;99.90
35970;DHT22;22448;51.298;6.430;2023-05-07T00:16:21;14.10;99.90
35970;DHT22;22448;51.298;6.430;2023-05-07T00:18:48;14.10;99.90
35970;DHT22;22448;51.298;6.430;2023-05-07T00:21:16;14.10;99.90
35970;DHT22;22448;51.298;6.430;2023-05-07T00:23:43;14.10;99.90
35970;DHT22;22448;51.298;6.430;2023-05-07T00:26:09;14.10;99.90
35970;DHT22;22448;51.298;6.430;2023-05-07T00:28:37;14.10;99.90
35970;DHT22;22448;51.298;6.430;2023-05-07T00:31:04;14.10;99.90
35970;DHT22;22448;51.298;6.430;2023-05-07T00:33:31;14.10;99.90
35970;DHT22;22448;51.298;6.430;2023-05-07T00:35:57;14.10;99.90
35970;DHT22;22448;51.298;6.430;2023-05-07T00:38:24;14.10;99.90
35970;DHT22;22448;51.298;6.430;2023-05-07T00:40:52;14.10;99.90
35970;DHT22;22448;51.298;6.430;2023-05-07T00:43:19;14.10;99.90
35970;DHT22;22448;51.298;6.430;2023-05-07T00:45:46;14.10;99.90
35970;DHT22;22448;51.298;6.430;2023-05-07T00:48:13;14.10;99.90
35970;DHT22;22448;51.298;6.430;2023-05-07T00:50:41;14.00;99.90
35970;DHT22;22448;51.298;6.430;2023-05-07T00:53:08;14.00;99.90
35970;DHT22;22448;51.298;6.430;2023-05-07T00:55:35;14.00;99.90
35970;DHT22;22448;51.298;6.430;2023-05-07T00:58:03;14.00;99.90
35970;DHT22;22448;51.298;6.430;2023-05-07T01:00:30;14.00;99.90
35970;DHT22;22448;51.298;6.430;2023-05-07T01:02:57;13.90;99.90
35970;DHT22;22448;51.298;6.430;2023-05-07T01:05:26;13.90;99.90
35970;DHT22;22448;51.298;6.430;2023-05-07T01:07:55;13.90;99.90
35970;DHT22;22448;51.298;6.430;2023-05-07T01:10:24;13.90;99.90
35970;DHT22;22448;51.298;6.430;2023-05-07T01:12:51;13.80;99.90
35970;DHT22;22448;51.298;6.430;2023-05-07T01:15:19;13.80;99.90
35970;DHT22;22448;51.298;6.430;2023-05-07T01:17:46;13.80;99.90
35970;DHT22;22448;51.298;6.430;2023-05-07T01:20:20;13.80;99.90
35970;DHT22;22448;51.298;6.430;2023-05-07T01:22:49;13.80;99.90
35970;DHT22;22448;51.298;6.430;2023-05-07T01:25:16;13.80;99.90
35970;DHT22;22448;51.298;6.430;2023-05-07T01:27:48;13.70;99.90
35970;DHT22;22448;51.298;6.430;2023-05-07T01:30:16;13.70;99.90
35970;DHT22;22448;51.298;6.430;2023-05-07T01:32:58;13.70;99.90
35970;DHT22;22448;51.298;6.430;2023-05-07T01:35:30;13.70;99.90
35970;DHT22;22448;51.298;6.430;2023-05-07T01:37:59;13.70;99.90
35970;DHT22;22448;51.298;6.430;2023-05-07T01:40:27;13.70;99.90
35970;DHT22;22448;51.298;6.430;2023-05-07T01:42:54;13.60;99.90
35970;DHT22;22448;51.298;6.430;2023-05-07T01:45:22;13.60;99.90
35970;DHT22;22448;51.298;6.430;2023-05-07T01:47:50;13.60;99.90
35970;DHT22;22448;51.298;6.430;2023-05-07T01:50:19;13.70;99.90
35970;DHT22;22448;51.298;6.430;2023-05-07T01:52:47;13.70;99.90
35970;DHT22;22448;51.298;6.430;2023-05-07T01:55:17;13.70;99.90
35970;DHT22;22448;51.298;6.430;2023-05-07T01:57:44;13.70;99.90
35970;DHT22;22448;51.298;6.430;2023-05-07T02:00:12;13.60;99.90
35970;DHT22;22448;51.298;6.430;2023-05-07T02:02:43;13.70;99.90
35970;DHT22;22448;51.298;6.430;2023-05-07T02:05:23;13.70;99.90
35970;DHT22;22448;51.298;6.430;2023-05-07T02:07:57;13.70;99.90
35970;DHT22;22448;51.298;6.430;2023-05-07T02:10:26;13.70;99.90
35970;DHT22;22448;51.298;6.430;2023-05-07T02:12:53;13.60;99.90
35970;DHT22;22448;51.298;6.430;2023-05-07T02:15:20;13.60;99.90
35970;DHT22;22448;51.298;6.430;2023-05-07T02:18:05;13.60;99.90
35970;DHT22;22448;51.298;6.430;2023-05-07T02:20:41;13.60;99.90
35970;DHT22;22448;51.298;6.430;2023-05-07T02:23:08;13.60;99.90
35970;DHT22;22448;51.298;6.430;2023-05-07T02:25:35;13.60;99.90
35970;DHT22;22448;51.298;6.430;2023-05-07T02:28:02;13.60;99.90
35970;DHT22;22448;51.298;6.430;2023-05-07T02:30:41;13.50;99.90
35970;DHT22;22448;51.298;6.430;2023-05-07T02:33:08;13.40;99.90
35970;DHT22;22448;51.298;6.430;2023-05-07T02:35:35;13.40;99.90
35970;DHT22;22448;51.298;6.430;2023-05-07T02:38:02;13.40;99.90
35970;DHT22;22448;51.298;6.430;2023-05-07T02:40:30;13.30;99.90
35970;DHT22;22448;51.298;6.430;2023-05-07T02:43:00;13.30;99.90
35970;DHT22;22448;51.298;6.430;2023-05-07T02:45:27;13.30;99.90
35970;DHT22;22448;51.298;6.430;2023-05-07T02:47:54;13.30;99.90
35970;DHT22;22448;51.298;6.430;2023-05-07T02:50:21;13.30;99.90
35970;DHT22;22448;51.298;6.430;2023-05-07T02:52:48;13.30;99.90
35970;DHT22;22448;51.298;6.430;2023-05-07T02:55:15;13.30;99.90
35970;DHT22;22448;51.298;6.430;2023-05-07T02:57:42;13.20;99.90
35970;DHT22;22448;51.298;6.430;2023-05-07T03:00:11;13.20;99.90
35970;DHT22;22448;51.298;6.430;2023-05-07T03:02:42;13.10;99.90
35970;DHT22;22448;51.298;6.430;2023-05-07T03:05:09;13.10;99.90
35970;DHT22;22448;51.298;6.430;2023-05-07T03:07:36;13.00;99.90
35970;DHT22;22448;51.298;6.430;2023-05-07T03:10:04;13.10;99.90
35970;DHT22;22448;51.298;6.430;2023-05-07T03:12:32;13.00;99.90
35970;DHT22;22448;51.298;6.430;2023-05-07T03:14:59;13.00;99.90
35970;DHT22;22448;51.298;6.430;2023-05-07T03:17:26;13.00;99.90
35970;DHT22;22448;51.298;6.430;2023-05-07T03:19:53;13.10;99.90
35970;DHT22;22448;51.298;6.430;2023-05-07T03:22:20;13.10;99.90
35970;DHT22;22448;51.298;6.430;2023-05-07T03:24:47;13.10;99.90
35970;DHT22;22448;51.298;6.430;2023-05-07T03:27:14;13.10;99.90
35970;DHT22;22448;51.298;6.430;2023-05-07T03:29:42;13.10;99.90
35970;DHT22;22448;51.298;6.430;2023-05-07T03:32:09;13.10;99.90
35970;DHT22;22448;51.298;6.430;2023-05-07T03:34:36;13.10;99.90
35970;DHT22;22448;51.298;6.430;2023-05-07T03:37:03;13.10;99.90
35970;DHT22;22448;51.298;6.430;2023-05-07T03:39:30;13.10;99.90
35970;DHT22;22448;51.298;6.430;2023-05-07T03:41:59;13.10;99.90
35970;DHT22;22448;51.298;6.430;2023-05-07T03:44:26;13.10;99.90
35970;DHT22;22448;51.298;6.430;2023-05-07T03:46:53;13.10;99.90
35970;DHT22;22448;51.298;6.430;2023-05-07T03:49:21;13.10;99.90
35970;DHT22;22448;51.298;6.430;2023-05-07T03:51:48;13.10;99.90
35970;DHT22;22448;51.298;6.430;2023-05-07T03:54:15;13.10;99.90
35970;DHT22;22448;51.298;6.430;2023-05-07T03:56:44;13.10;99.90
35970;DHT22;22448;51.298;6.430;2023-05-07T03:59:12;13.10;99.90
35970;DHT22;22448;51.298;6.430;2023-05-07T04:01:41;13.10;99.90
35970;DHT22;22448;51.298;6.430;2023-05-07T04:04:14;13.10;99.90
35970;DHT22;22448;51.298;6.430;2023-05-07T04:06:42;13.10;99.90
35970;DHT22;22448;51.298;6.430;2023-05-07T04:09:09;13.10;99.90
35970;DHT22;22448;51.298;6.430;2023-05-07T04:11:37;13.20;99.90
35970;DHT22;22448;51.298;6.430;2023-05-07T04:14:08;13.20;99.90
35970;DHT22;22448;51.298;6.430;2023-05-07T04:16:36;13.20;99.90
35970;DHT22;22448;51.298;6.430;2023-05-07T04:19:04;13.20;99.90
35970;DHT22;22448;51.298;6.430;2023-05-07T04:21:31;13.20;99.90
35970;DHT22;22448;51.298;6.430;2023-05-07T04:23:58;13.20;99.90
35970;DHT22;22448;51.298;6.430;2023-05-07T04:26:25;13.20;99.90
35970;DHT22;22448;51.298;6.430;2023-05-07T04:28:52;13.30;99.90
35970;DHT22;22448;51.298;6.430;2023-05-07T04:31:19;13.20;99.90
35970;DHT22;22448;51.298;6.430;2023-05-07T04:33:51;13.30;99.90
35970;DHT22;22448;51.298;6.430;2023-05-07T04:36:18;13.30;99.90
35970;DHT22;22448;51.298;6.430;2023-05-07T04:38:50;13.30;99.90
35970;DHT22;22448;51.298;6.430;2023-05-07T04:41:19;13.30;99.90
35970;DHT22;22448;51.298;6.430;2023-05-07T04:43:46;13.30;99.90
35970;DHT22;22448;51.298;6.430;2023-05-07T04:46:14;13.30;99.90
35970;DHT22;22448;51.298;6.430;2023-05-07T04:48:42;13.30;99.90
35970;DHT22;22448;51.298;6.430;2023-05-07T04:51:10;13.30;99.90
35970;DHT22;22448;51.298;6.430;2023-05-07T04:53:37;13.40;99.90
35970;DHT22;22448;51.298;6.430;2023-05-07T04:56:05;13.50;99.90
35970;DHT22;22448;51.298;6.430;2023-05-07T04:58:38;13.50;99.90
35970;DHT22;22448;51.298;6.430;2023-05-07T05:01:05;13.60;99.90
35970;DHT22;22448;51.298;6.430;2023-05-07T05:03:32;13.60;99.90
35970;DHT22;22448;51.298;6.430;2023-05-07T05:06:00;13.60;99.90
35970;DHT22;22448;51.298;6.430;2023-05-07T05:08:31;13.70;99.90
35970;DHT22;22448;51.298;6.430;2023-05-07T05:11:01;13.70;99.90
35970;DHT22;22448;51.298;6.430;2023-05-07T05:13:30;13.80;99.90
35970;DHT22;22448;51.298;6.430;2023-05-07T05:15:57;13.80;99.90
35970;DHT22;22448;51.298;6.430;2023-05-07T05:18:26;13.80;99.90
35970;DHT22;22448;51.298;6.430;2023-05-07T05:20:53;13.90;99.90
35970;DHT22;22448;51.298;6.430;2023-05-07T05:23:20;14.00;99.90
35970;DHT22;22448;51.298;6.430;2023-05-07T05:25:47;14.10;99.90
35970;DHT22;22448;51.298;6.430;2023-05-07T05:28:15;14.10;99.90
35970;DHT22;22448;51.298;6.430;2023-05-07T05:30:42;14.30;99.90
35970;DHT22;22448;51.298;6.430;2023-05-07T05:33:09;14.40;99.90
35970;DHT22;22448;51.298;6.430;2023-05-07T05:35:36;14.50;99.90
35970;DHT22;22448;51.298;6.430;2023-05-07T05:38:06;14.60;99.90
35970;DHT22;22448;51.298;6.430;2023-05-07T05:40:33;14.80;99.90
35970;DHT22;22448;51.298;6.430;2023-05-07T05:43:00;14.90;99.90
35970;DHT22;22448;51.298;6.430;2023-05-07T05:45:28;14.90;99.90
35970;DHT22;22448;51.298;6.430;2023-05-07T05:47:56;15.10;99.90
35970;DHT22;22448;51.298;6.430;2023-05-07T05:50:23;15.10;99.90
35970;DHT22;22448;51.298;6.430;2023-05-07T05:52:51;15.20;99.90
35970;DHT22;22448;51.298;6.430;2023-05-07T05:55:19;15.20;99.90
35970;DHT22;22448;51.298;6.430;2023-05-07T05:57:47;15.30;99.90
35970;DHT22;22448;51.298;6.430;2023-05-07T06:00:15;15.30;99.90
35970;DHT22;22448;51.298;6.430;2023-05-07T06:02:45;15.40;99.90
35970;DHT22;22448;51.298;6.430;2023-05-07T06:05:19;15.40;99.90
35970;DHT22;22448;51.298;6.430;2023-05-07T06:07:49;15.40;99.90
35970;DHT22;22448;51.298;6.430;2023-05-07T06:10:16;15.50;99.90
35970;DHT22;22448;51.298;6.430;2023-05-07T06:12:44;15.50;99.90
35970;DHT22;22448;51.298;6.430;2023-05-07T06:15:11;15.60;99.90
35970;DHT22;22448;51.298;6.430;2023-05-07T06:17:40;15.50;99.90
35970;DHT22;22448;51.298;6.430;2023-05-07T06:20:08;15.60;99.90
35970;DHT22;22448;51.298;6.430;2023-05-07T06:22:37;15.70;99.90
35970;DHT22;22448;51.298;6.430;2023-05-07T06:25:05;15.60;99.90
35970;DHT22;22448;51.298;6.430;2023-05-07T06:27:32;15.60;99.90
35970;DHT22;22448;51.298;6.430;2023-05-07T06:29:59;15.50;99.90
35970;DHT22;22448;51.298;6.430;2023-05-07T06:32:27;15.50;99.90
35970;DHT22;22448;51.298;6.430;2023-05-07T06:34:54;15.60;99.90
35970;DHT22;22448;51.298;6.430;2023-05-07T06:37:22;15.60;99.90
35970;DHT22;22448;51.298;6.430;2023-05-07T06:40:02;15.70;99.90
35970;DHT22;22448;51.298;6.430;2023-05-07T06:42:31;15.90;99.90
35970;DHT22;22448;51.298;6.430;2023-05-07T06:45:15;16.10;99.90
35970;DHT22;22448;51.298;6.430;2023-05-07T06:47:42;16.70;99.90
35970;DHT22;22448;51.298;6.430;2023-05-07T06:50:10;17.20;99.90
35970;DHT22;22448;51.298;6.430;2023-05-07T06:52:38;18.30;99.90
35970;DHT22;22448;51.298;6.430;2023-05-07T06:55:06;19.40;99.90
35970;DHT22;22448;51.298;6.430;2023-05-07T06:57:33;21.20;99.90
35970;DHT22;22448;51.298;6.430;2023-05-07T07:00:00;21.60;99.90
35970;DHT22;22448;51.298;6.430;2023-05-07T07:02:28;22.30;99.90
35970;DHT22;22448;51.298;6.430;2023-05-07T07:04:56;22.10;99.90
35970;DHT22;22448;51.298;6.430;2023-05-07T07:07:23;21.70;99.90
35970;DHT22;22448;51.298;6.430;2023-05-07T07:09:50;21.90;99.90
35970;DHT22;22448;51.298;6.430;2023-05-07T07:12:18;22.50;99.90
35970;DHT22;22448;51.298;6.430;2023-05-07T07:14:46;22.80;99.90
35970;DHT22;22448;51.298;6.430;2023-05-07T07:17:14;23.10;99.90
35970;DHT22;22448;51.298;6.430;2023-05-07T07:19:40;22.50;99.90
35970;DHT22;22448;51.298;6.430;2023-05-07T07:22:08;22.50;99.90
35970;DHT22;22448;51.298;6.430;2023-05-07T07:24:35;22.30;99.90
35970;DHT22;22448;51.298;6.430;2023-05-07T07:27:05;22.00;99.90
35970;DHT22;22448;51.298;6.430;2023-05-07T07:29:33;21.70;99.90
35970;DHT22;22448;51.298;6.430;2023-05-07T07:32:01;21.20;99.90
35970;DHT22;22448;51.298;6.430;2023-05-07T07:34:28;20.90;99.90
35970;DHT22;22448;51.298;6.430;2023-05-07T07:36:55;20.90;99.90
35970;DHT22;22448;51.298;6.430;2023-05-07T07:39:23;21.00;99.90
35970;DHT22;22448;51.298;6.430;2023-05-07T07:41:53;20.80;99.90
35970;DHT22;22448;51.298;6.430;2023-05-07T07:44:21;20.90;99.90
35970;DHT22;22448;51.298;6.430;2023-05-07T07:46:52;21.20;99.90
35970;DHT22;22448;51.298;6.430;2023-05-07T07:49:21;21.50;99.90
35970;DHT22;22448;51.298;6.430;2023-05-07T07:51:48;21.60;99.90
35970;DHT22;22448;51.298;6.430;2023-05-07T07:54:16;21.10;99.90
35970;DHT22;22448;51.298;6.430;2023-05-07T07:56:43;21.20;99.90
35970;DHT22;22448;51.298;6.430;2023-05-07T07:59:12;21.10;99.90
35970;DHT22;22448;51.298;6.430;2023-05-07T08:01:41;21.10;99.90
35970;DHT22;22448;51.298;6.430;2023-05-07T08:04:08;21.00;99.90
35970;DHT22;22448;51.298;6.430;2023-05-07T08:06:39;21.00;99.90
35970;DHT22;22448;51.298;6.430;2023-05-07T08:09:08;21.00;99.90
35970;DHT22;22448;51.298;6.430;2023-05-07T08:11:36;21.40;99.90
35970;DHT22;22448;51.298;6.430;2023-05-07T08:14:04;21.90;99.90
35970;DHT22;22448;51.298;6.430;2023-05-07T08:16:31;22.40;99.90
35970;DHT22;22448;51.298;6.430;2023-05-07T08:19:00;22.70;99.90
35970;DHT22;22448;51.298;6.430;2023-05-07T08:21:26;22.70;99.90
35970;DHT22;22448;51.298;6.430;2023-05-07T08:23:54;23.10;99.90
35970;DHT22;22448;51.298;6.430;2023-05-07T08:26:21;23.00;99.90
35970;DHT22;22448;51.298;6.430;2023-05-07T08:28:48;22.60;99.90
35970;DHT22;22448;51.298;6.430;2023-05-07T08:31:14;22.00;99.90
35970;DHT22;22448;51.298;6.430;2023-05-07T08:33:43;21.70;99.90
35970;DHT22;22448;51.298;6.430;2023-05-07T08:36:10;22.10;99.90
35970;DHT22;22448;51.298;6.430;2023-05-07T08:38:37;22.50;99.90
35970;DHT22;22448;51.298;6.430;2023-05-07T08:41:05;22.80;99.90
35970;DHT22;22448;51.298;6.430;2023-05-07T08:43:36;23.10;99.90
35970;DHT22;22448;51.298;6.430;2023-05-07T08:46:06;23.30;99.90
35970;DHT22;22448;51.298;6.430;2023-05-07T08:48:40;23.50;99.90
35970;DHT22;22448;51.298;6.430;2023-05-07T08:51:13;23.50;99.90
35970;DHT22;22448;51.298;6.430;2023-05-07T08:53:41;23.70;99.90
35970;DHT22;22448;51.298;6.430;2023-05-07T08:56:12;23.80;99.90
35970;DHT22;22448;51.298;6.430;2023-05-07T08:58:40;23.80;99.90
35970;DHT22;22448;51.298;6.430;2023-05-07T09:01:09;23.30;99.90
35970;DHT22;22448;51.298;6.430;2023-05-07T09:03:38;22.90;99.90
35970;DHT22;22448;51.298;6.430;2023-05-07T09:06:05;21.80;99.90
35970;DHT22;22448;51.298;6.430;2023-05-07T09:08:33;21.40;99.90
35970;DHT22;22448;51.298;6.430;2023-05-07T09:11:02;21.20;99.90
35970;DHT22;22448;51.298;6.430;2023-05-07T09:13:30;21.10;99.90
35970;DHT22;22448;51.298;6.430;2023-05-07T09:15:59;20.80;99.90
35970;DHT22;22448;51.298;6.430;2023-05-07T09:18:43;20.80;99.90
35970;DHT22;22448;51.298;6.430;2023-05-07T09:21:15;20.90;99.90
35970;DHT22;22448;51.298;6.430;2023-05-07T09:23:44;21.20;99.90
35970;DHT22;22448;51.298;6.430;2023-05-07T09:26:11;21.20;99.90
35970;DHT22;22448;51.298;6.430;2023-05-07T09:28:41;21.30;99.90
35970;DHT22;22448;51.298;6.430;2023-05-07T09:31:11;21.40;99.90
35970;DHT22;22448;51.298;6.430;2023-05-07T09:33:40;21.70;99.90
35970;DHT22;22448;51.298;6.430;2023-05-07T09:36:09;22.00;99.90
35970;DHT22;22448;51.298;6.430;2023-05-07T09:38:39;22.40;99.90
35970;DHT22;22448;51.298;6.430;2023-05-07T09:41:12;23.00;99.90
35970;DHT22;22448;51.298;6.430;2023-05-07T09:43:53;23.30;99.90
35970;DHT22;22448;51.298;6.430;2023-05-07T09:46:29;23.70;99.90
35970;DHT22;22448;51.298;6.430;2023-05-07T09:48:59;23.60;99.90
35970;DHT22;22448;51.298;6.430;2023-05-07T09:51:52;23.70;99.90
35970;DHT22;22448;51.298;6.430;2023-05-07T09:54:19;23.60;99.90
35970;DHT22;22448;51.298;6.430;2023-05-07T09:56:49;23.70;99.90
35970;DHT22;22448;51.298;6.430;2023-05-07T09:59:17;23.80;99.90
35970;DHT22;22448;51.298;6.430;2023-05-07T10:01:46;23.80;99.90
35970;DHT22;22448;51.298;6.430;2023-05-07T10:04:14;23.60;99.90
35970;DHT22;22448;51.298;6.430;2023-05-07T10:06:44;23.30;99.90
35970;DHT22;22448;51.298;6.430;2023-05-07T10:09:12;23.20;99.90
35970;DHT22;22448;51.298;6.430;2023-05-07T10:11:40;23.00;99.90
35970;DHT22;22448;51.298;6.430;2023-05-07T10:14:08;22.90;99.90
35970;DHT22;22448;51.298;6.430;2023-05-07T10:16:36;22.60;99.90
35970;DHT22;22448;51.298;6.430;2023-05-07T10:19:09;22.70;99.90
35970;DHT22;22448;51.298;6.430;2023-05-07T10:21:51;22.40;99.90
35970;DHT22;22448;51.298;6.430;2023-05-07T10:24:26;22.40;99.90
35970;DHT22;22448;51.298;6.430;2023-05-07T10:26:55;22.50;99.90
35970;DHT22;22448;51.298;6.430;2023-05-07T10:32:19;22.70;99.90
35970;DHT22;22448;51.298;6.430;2023-05-07T10:34:54;22.90;99.90
35970;DHT22;22448;51.298;6.430;2023-05-07T10:37:22;22.80;99.90
35970;DHT22;22448;51.298;6.430;2023-05-07T10:39:51;22.80;99.90
35970;DHT22;22448;51.298;6.430;2023-05-07T10:42:19;22.70;99.90
35970;DHT22;22448;51.298;6.430;2023-05-07T10:44:50;22.70;99.90
35970;DHT22;22448;51.298;6.430;2023-05-07T10:47:23;22.70;99.90
35970;DHT22;22448;51.298;6.430;2023-05-07T10:52:26;22.50;99.90
35970;DHT22;22448;51.298;6.430;2023-05-07T10:57:55;22.30;99.90
35970;DHT22;22448;51.298;6.430;2023-05-07T11:05:36;22.50;99.90
35970;DHT22;22448;51.298;6.430;2023-05-07T11:08:24;22.80;99.90
35970;DHT22;22448;51.298;6.430;2023-05-07T11:10:57;22.70;99.90
35970;DHT22;22448;51.298;6.430;2023-05-07T11:13:49;22.80;99.90
35970;DHT22;22448;51.298;6.430;2023-05-07T11:16:37;22.70;99.90
35970;DHT22;22448;51.298;6.430;2023-05-07T11:19:16;22.60;99.90
35970;DHT22;22448;51.298;6.430;2023-05-07T11:21:47;22.60;99.90
35970;DHT22;22448;51.298;6.430;2023-05-07T11:24:40;22.70;99.90
35970;DHT22;22448;51.298;6.430;2023-05-07T11:27:11;22.70;99.90
35970;DHT22;22448;51.298;6.430;2023-05-07T11:29:38;23.00;99.90
35970;DHT22;22448;51.298;6.430;2023-05-07T11:32:09;23.00;99.90
35970;DHT22;22448;51.298;6.430;2023-05-07T11:34:44;23.10;99.90
35970;DHT22;22448;51.298;6.430;2023-05-07T11:37:17;23.10;99.90
35970;DHT22;22448;51.298;6.430;2023-05-07T11:39:51;23.10;99.90
35970;DHT22;22448;51.298;6.430;2023-05-07T11:42:28;23.10;99.90
35970;DHT22;22448;51.298;6.430;2023-05-07T11:44:56;23.10;99.90
35970;DHT22;22448;51.298;6.430;2023-05-07T11:47:24;23.20;99.90
35970;DHT22;22448;51.298;6.430;2023-05-07T11:49:53;23.20;99.90
35970;DHT22;22448;51.298;6.430;2023-05-07T11:52:22;23.30;99.90
35970;DHT22;22448;51.298;6.430;2023-05-07T11:54:54;23.30;99.90
35970;DHT22;22448;51.298;6.430;2023-05-07T11:57:26;23.30;99.90
35970;DHT22;22448;51.298;6.430;2023-05-07T11:59:57;23.20;99.90
35970;DHT22;22448;51.298;6.430;2023-05-07T12:02:25;23.00;99.90
35970;DHT22;22448;51.298;6.430;2023-05-07T12:04:52;22.80;99.90
35970;DHT22;22448;51.298;6.430;2023-05-07T12:07:20;22.60;99.90
35970;DHT22;22448;51.298;6.430;2023-05-07T12:09:47;22.60;99.90
35970;DHT22;22448;51.298;6.430;2023-05-07T12:12:14;22.60;99.90
35970;DHT22;22448;51.298;6.430;2023-05-07T12:14:45;22.50;99.90
35970;DHT22;22448;51.298;6.430;2023-05-07T12:17:14;22.40;99.90
35970;DHT22;22448;51.298;6.430;2023-05-07T12:19:43;22.20;99.90
35970;DHT22;22448;51.298;6.430;2023-05-07T12:22:10;22.00;99.90
35970;DHT22;22448;51.298;6.430;2023-05-07T12:24:49;22.00;99.90
35970;DHT22;22448;51.298;6.430;2023-05-07T12:27:17;22.00;99.90
35970;DHT22;22448;51.298;6.430;2023-05-07T12:29:46;22.00;99.90
35970;DHT22;22448;51.298;6.430;2023-05-07T12:32:18;22.00;99.90
35970;DHT22;22448;51.298;6.430;2023-05-07T12:34:46;21.90;99.90
35970;DHT22;22448;51.298;6.430;2023-05-07T12:37:13;21.90;99.90
35970;DHT22;22448;51.298;6.430;2023-05-07T12:40:03;21.80;99.90
35970;DHT22;22448;51.298;6.430;2023-05-07T12:42:33;21.80;99.90
35970;DHT22;22448;51.298;6.430;2023-05-07T12:45:12;21.90;99.90
35970;DHT22;22448;51.298;6.430;2023-05-07T12:47:47;21.90;99.90
35970;DHT22;22448;51.298;6.430;2023-05-07T12:50:15;21.90;99.90
35970;DHT22;22448;51.298;6.430;2023-05-07T12:52:44;22.10;99.90
35970;DHT22;22448;51.298;6.430;2023-05-07T12:55:14;22.10;99.90
35970;DHT22;22448;51.298;6.430;2023-05-07T12:57:43;22.20;99.90
35970;DHT22;22448;51.298;6.430;2023-05-07T13:00:12;22.20;99.90
35970;DHT22;22448;51.298;6.430;2023-05-07T13:02:41;22.10;99.90
35970;DHT22;22448;51.298;6.430;2023-05-07T13:05:08;22.20;99.90
35970;DHT22;22448;51.298;6.430;2023-05-07T13:07:36;22.10;99.90
35970;DHT22;22448;51.298;6.430;2023-05-07T13:10:04;22.10;99.90
35970;DHT22;22448;51.298;6.430;2023-05-07T13:12:32;22.10;99.90
35970;DHT22;22448;51.298;6.430;2023-05-07T13:14:59;22.10;99.90
35970;DHT22;22448;51.298;6.430;2023-05-07T13:17:26;22.00;99.90
35970;DHT22;22448;51.298;6.430;2023-05-07T13:19:53;22.00;99.90
35970;DHT22;22448;51.298;6.430;2023-05-07T13:22:20;22.00;99.90
35970;DHT22;22448;51.298;6.430;2023-05-07T13:24:47;22.00;99.90
35970;DHT22;22448;51.298;6.430;2023-05-07T13:27:14;22.00;99.90
35970;DHT22;22448;51.298;6.430;2023-05-07T13:29:41;22.00;99.90
35970;DHT22;22448;51.298;6.430;2023-05-07T13:32:08;21.90;99.90
35970;DHT22;22448;51.298;6.430;2023-05-07T13:34:35;22.00;99.90
35970;DHT22;22448;51.298;6.430;2023-05-07T13:37:02;22.00;99.90
35970;DHT22;22448;51.298;6.430;2023-05-07T13:39:29;22.00;99.90
35970;DHT22;22448;51.298;6.430;2023-05-07T13:41:56;22.00;99.90
35970;DHT22;22448;51.298;6.430;2023-05-07T13:44:23;22.10;99.90
35970;DHT22;22448;51.298;6.430;2023-05-07T13:46:50;22.00;99.90
35970;DHT22;22448;51.298;6.430;2023-05-07T13:49:18;21.90;99.90
35970;DHT22;22448;51.298;6.430;2023-05-07T13:51:44;21.70;99.90
35970;DHT22;22448;51.298;6.430;2023-05-07T13:54:12;21.70;99.90
35970;DHT22;22448;51.298;6.430;2023-05-07T13:56:39;21.60;99.90
35970;DHT22;22448;51.298;6.430;2023-05-07T13:59:06;21.50;99.90
35970;DHT22;22448;51.298;6.430;2023-05-07T14:01:33;21.40;99.90
35970;DHT22;22448;51.298;6.430;2023-05-07T14:04:00;21.40;99.90
35970;DHT22;22448;51.298;6.430;2023-05-07T14:06:27;21.40;99.90
35970;DHT22;22448;51.298;6.430;2023-05-07T14:08:54;21.40;99.90
35970;DHT22;22448;51.298;6.430;2023-05-07T14:11:21;21.50;99.90
35970;DHT22;22448;51.298;6.430;2023-05-07T14:13:48;21.50;99.90
35970;DHT22;22448;51.298;6.430;2023-05-07T14:16:15;21.40;99.90
35970;DHT22;22448;51.298;6.430;2023-05-07T14:18:42;21.40;99.90
35970;DHT22;22448;51.298;6.430;2023-05-07T14:21:09;21.50;99.90
35970;DHT22;22448;51.298;6.430;2023-05-07T14:23:36;21.60;99.90
35970;DHT22;22448;51.298;6.430;2023-05-07T14:26:03;21.70;99.90
35970;DHT22;22448;51.298;6.430;2023-05-07T14:28:30;21.80;99.90
35970;DHT22;22448;51.298;6.430;2023-05-07T14:30:57;21.80;99.90
35970;DHT22;22448;51.298;6.430;2023-05-07T14:33:24;21.80;99.90
35970;DHT22;22448;51.298;6.430;2023-05-07T14:35:51;21.80;99.90
35970;DHT22;22448;51.298;6.430;2023-05-07T14:38:19;21.80;99.90
35970;DHT22;22448;51.298;6.430;2023-05-07T14:40:46;21.70;99.90
35970;DHT22;22448;51.298;6.430;2023-05-07T14:43:13;21.70;99.90
35970;DHT22;22448;51.298;6.430;2023-05-07T14:45:41;21.70;99.90
35970;DHT22;22448;51.298;6.430;2023-05-07T14:48:08;21.70;99.90
35970;DHT22;22448;51.298;6.430;2023-05-07T14:50:36;21.70;99.90
35970;DHT22;22448;51.298;6.430;2023-05-07T14:53:03;21.60;99.90
35970;DHT22;22448;51.298;6.430;2023-05-07T14:55:30;21.60;99.90
35970;DHT22;22448;51.298;6.430;2023-05-07T14:58:00;21.50;99.90
35970;DHT22;22448;51.298;6.430;2023-05-07T15:00:28;21.40;99.90
35970;DHT22;22448;51.298;6.430;2023-05-07T15:03:08;21.40;99.90
35970;DHT22;22448;51.298;6.430;2023-05-07T15:05:36;21.30;99.90
35970;DHT22;22448;51.298;6.430;2023-05-07T15:08:03;21.30;99.90
35970;DHT22;22448;51.298;6.430;2023-05-07T15:10:30;21.20;99.90
35970;DHT22;22448;51.298;6.430;2023-05-07T15:12:57;21.00;99.90
35970;DHT22;22448;51.298;6.430;2023-05-07T15:15:24;20.70;99.90
35970;DHT22;22448;51.298;6.430;2023-05-07T15:17:52;20.40;99.90
35970;DHT22;22448;51.298;6.430;2023-05-07T15:20:19;20.20;99.90
35970;DHT22;22448;51.298;6.430;2023-05-07T15:22:46;20.10;99.90
35970;DHT22;22448;51.298;6.430;2023-05-07T15:25:13;19.90;99.90
35970;DHT22;22448;51.298;6.430;2023-05-07T15:27:42;19.70;99.90
35970;DHT22;22448;51.298;6.430;2023-05-07T15:30:09;19.50;99.90
35970;DHT22;22448;51.298;6.430;2023-05-07T15:32:37;19.50;99.90
35970;DHT22;22448;51.298;6.430;2023-05-07T15:35:05;19.50;99.90
35970;DHT22;22448;51.298;6.430;2023-05-07T15:37:33;19.40;99.90
35970;DHT22;22448;51.298;6.430;2023-05-07T15:40:00;19.50;99.90
35970;DHT22;22448;51.298;6.430;2023-05-07T15:42:29;19.50;99.90
35970;DHT22;22448;51.298;6.430;2023-05-07T15:44:56;19.50;99.90
35970;DHT22;22448;51.298;6.430;2023-05-07T15:47:23;19.50;99.90
35970;DHT22;22448;51.298;6.430;2023-05-07T15:49:50;19.40;99.90
35970;DHT22;22448;51.298;6.430;2023-05-07T15:52:17;19.40;99.90
35970;DHT22;22448;51.298;6.430;2023-05-07T15:54:44;19.40;99.90